Time;durP1;ratioP1;P1;durP2;ratioP2;P2;SDS_P1;SDS_P2;PMS_P1;PMS_P2;Temp;Humidity;BMP_temperature;BMP_pressure;BME280_temperature;BME280_humidity;BME280_pressure;Samples;Min_cycle;Max_cycle;Signal;HPM_P1;HPM_P2
2023/04/05 00:01:38;;;;;;;0.97;0.97;;;;;;;;;;5092120;28;20452;-67
2023/04/05 00:04:06;;;;;;;0.60;0.40;;;;;;;;;;5093241;28;20461;-68
2023/04/05 00:06:34;;;;;;;0.60;0.40;;;;;;;;;;5092686;28;20480;-68
2023/04/05 00:09:03;;;;;;;0.60;0.40;;;;;;;;;;5092434;28;20447;-68
2023/04/05 00:11:31;;;;;;;0.60;0.40;;;;;;;;;;5092943;28;20451;-68
2023/04/05 00:13:59;;;;;;;0.60;0.60;;;;;;;;;;5092458;28;20468;-67
2023/04/05 00:16:27;;;;;;;0.70;0.50;;;;;;;;;;5092745;28;20901;-67
2023/04/05 00:18:57;;;;;;;0.60;0.50;;;;;;;;;;5091765;28;20460;-67
2023/04/05 00:21:25;;;;;;;0.60;0.57;;;;;;;;;;5092529;28;20490;-68
2023/04/05 00:23:53;;;;;;;0.63;0.50;;;;;;;;;;5092002;28;20940;-67
2023/04/05 00:26:20;;;;;;;0.60;0.40;;;;;;;;;;5092124;28;20447;-67
2023/04/05 00:28:47;;;;;;;0.70;0.50;;;;;;;;;;5091308;28;20476;-67
2023/04/05 00:31:15;;;;;;;0.60;0.50;;;;;;;;;;5092409;28;20505;-67
2023/04/05 00:33:42;;;;;;;1.53;1.03;;;;;;;;;;5092052;28;20452;-67
2023/04/05 00:36:11;;;;;;;0.60;0.40;;;;;;;;;;5092124;28;20441;-68
2023/04/05 00:38:38;;;;;;;0.60;0.40;;;;;;;;;;5091505;28;20458;-67
2023/04/05 00:41:05;;;;;;;0.60;0.40;;;;;;;;;;5092493;28;20447;-67
2023/04/05 00:43:32;;;;;;;0.53;0.40;;;;;;;;;;5092504;28;20767;-67
2023/04/05 00:46:00;;;;;;;0.60;0.40;;;;;;;;;;5091647;28;20448;-67
2023/04/05 00:48:27;;;;;;;0.60;0.47;;;;;;;;;;5091909;28;20484;-67
2023/04/05 00:50:55;;;;;;;0.60;0.40;;;;;;;;;;5091076;28;20457;-67
2023/04/05 00:53:25;;;;;;;0.60;0.40;;;;;;;;;;5091927;28;20448;-67
2023/04/05 00:55:52;;;;;;;0.60;0.40;;;;;;;;;;5091663;28;20450;-67
2023/04/05 00:58:21;;;;;;;0.60;0.40;;;;;;;;;;5091246;28;20455;-67
2023/04/05 01:01:05;;;;;;;0.60;0.40;;;;;;;;;;5091479;28;20444;-67
2023/04/05 01:03:33;;;;;;;0.60;0.40;;;;;;;;;;5091765;28;20927;-67
2023/04/05 01:06:04;;;;;;;0.60;0.60;;;;;;;;;;5091332;28;20727;-67
2023/04/05 01:08:38;;;;;;;0.60;0.40;;;;;;;;;;5091317;28;20848;-67
2023/04/05 01:11:06;;;;;;;0.50;0.40;;;;;;;;;;5092260;28;20454;-67
2023/04/05 01:13:33;;;;;;;0.60;0.40;;;;;;;;;;5091819;28;20467;-67
2023/04/05 01:16:00;;;;;;;5.13;0.83;;;;;;;;;;5090887;28;20935;-67
2023/04/05 01:18:29;;;;;;;0.80;0.57;;;;;;;;;;5091112;28;20475;-67
2023/04/05 01:21:00;;;;;;;1.53;1.43;;;;;;;;;;5090861;28;20484;-68
2023/04/05 01:23:32;;;;;;;0.60;0.40;;;;;;;;;;5091396;28;20904;-67
2023/04/05 01:26:16;;;;;;;0.60;0.50;;;;;;;;;;5091035;28;20440;-67
2023/04/05 01:29:06;;;;;;;0.70;0.40;;;;;;;;;;5090791;28;20472;-67
2023/04/05 01:31:39;;;;;;;1.13;1.00;;;;;;;;;;5071498;28;20463;-67
2023/04/05 01:34:08;;;;;;;0.90;0.67;;;;;;;;;;5091337;28;20447;-67
2023/04/05 01:36:38;;;;;;;0.60;0.40;;;;;;;;;;5090963;28;20455;-67
2023/04/05 01:39:06;;;;;;;0.60;0.40;;;;;;;;;;5090488;28;20471;-67
2023/04/05 01:41:34;;;;;;;0.50;0.40;;;;;;;;;;5091668;28;20454;-67
2023/04/05 01:44:01;;;;;;;0.60;0.40;;;;;;;;;;5091015;28;20799;-67
2023/04/05 01:46:28;;;;;;;0.60;0.40;;;;;;;;;;5091419;28;20447;-67
2023/04/05 01:48:56;;;;;;;0.60;0.50;;;;;;;;;;5090041;28;20481;-67
2023/04/05 01:51:24;;;;;;;0.60;0.40;;;;;;;;;;5091115;28;20456;-67
2023/04/05 01:53:51;;;;;;;0.70;0.63;;;;;;;;;;5090360;28;20452;-67
2023/04/05 01:56:18;;;;;;;0.60;0.40;;;;;;;;;;5091325;28;20455;-67
2023/04/05 01:58:45;;;;;;;0.60;0.50;;;;;;;;;;5090334;28;20563;-67
2023/04/05 02:01:12;;;;;;;0.60;0.40;;;;;;;;;;5091214;28;20443;-67
2023/04/05 02:03:40;;;;;;;0.60;0.40;;;;;;;;;;5090516;28;20455;-67
2023/04/05 02:06:08;;;;;;;1.23;1.13;;;;;;;;;;5090840;28;20546;-67
2023/04/05 02:08:35;;;;;;;0.60;0.40;;;;;;;;;;5090768;28;20833;-67
2023/04/05 02:11:02;;;;;;;0.60;0.40;;;;;;;;;;5091361;28;20444;-67
2023/04/05 02:13:29;;;;;;;0.60;0.40;;;;;;;;;;5091124;28;20439;-67
2023/04/05 02:15:57;;;;;;;0.60;0.40;;;;;;;;;;5090281;28;20467;-67
2023/04/05 02:18:30;;;;;;;0.60;0.40;;;;;;;;;;5090586;28;20500;-67
2023/04/05 02:21:02;;;;;;;0.57;0.40;;;;;;;;;;5089895;28;20583;-67
2023/04/05 02:23:31;;;;;;;0.60;0.40;;;;;;;;;;5078342;28;20812;-66
2023/04/05 02:25:59;;;;;;;1.00;0.90;;;;;;;;;;5090169;28;20447;-68
2023/04/05 02:28:26;;;;;;;0.60;0.57;;;;;;;;;;5090539;28;20945;-67
2023/04/05 02:30:53;;;;;;;0.60;0.40;;;;;;;;;;5090430;28;20448;-66
2023/04/05 02:33:21;;;;;;;0.60;0.40;;;;;;;;;;5090592;28;20462;-67
2023/04/05 02:35:48;;;;;;;0.60;0.40;;;;;;;;;;5090190;28;20443;-67
2023/04/05 02:38:16;;;;;;;0.57;0.40;;;;;;;;;;5090636;28;20456;-67
2023/04/05 02:40:46;;;;;;;1.53;0.70;;;;;;;;;;5090371;28;20455;-67
2023/04/05 02:43:13;;;;;;;0.60;0.40;;;;;;;;;;5090854;28;20447;-67
2023/04/05 02:45:40;;;;;;;0.60;0.40;;;;;;;;;;5089906;28;20933;-66
2023/04/05 02:48:07;;;;;;;1.53;1.43;;;;;;;;;;5090593;28;20477;-67
2023/04/05 02:50:34;;;;;;;0.77;0.70;;;;;;;;;;5094489;28;20462;-67
2023/04/05 02:53:01;;;;;;;1.17;1.03;;;;;;;;;;5094657;28;20486;-67
2023/04/05 02:55:29;;;;;;;0.60;0.40;;;;;;;;;;5094412;28;20452;-67
2023/04/05 02:58:00;;;;;;;0.67;0.50;;;;;;;;;;5093321;28;20528;-67
2023/04/05 03:00:27;;;;;;;0.60;0.40;;;;;;;;;;5094433;28;20838;-67
2023/04/05 03:02:55;;;;;;;0.60;0.50;;;;;;;;;;5093842;28;20451;-67
2023/04/05 03:05:22;;;;;;;0.60;0.43;;;;;;;;;;5094309;28;20500;-67
2023/04/05 03:07:51;;;;;;;0.60;0.40;;;;;;;;;;5093148;28;20497;-67
2023/04/05 03:10:21;;;;;;;0.60;0.60;;;;;;;;;;5094250;28;20457;-67
2023/04/05 03:12:50;;;;;;;0.60;0.50;;;;;;;;;;5093964;28;20849;-66
2023/04/05 03:15:18;;;;;;;0.60;0.40;;;;;;;;;;5094238;28;20462;-66
2023/04/05 03:17:45;;;;;;;0.80;0.80;;;;;;;;;;5093107;28;20439;-66
2023/04/05 03:20:13;;;;;;;0.60;0.40;;;;;;;;;;5093751;28;20478;-66
2023/04/05 03:22:41;;;;;;;0.60;0.40;;;;;;;;;;5093217;28;20444;-67
2023/04/05 03:25:08;;;;;;;0.60;0.50;;;;;;;;;;5093705;28;20474;-66
2023/04/05 03:27:37;;;;;;;0.60;0.40;;;;;;;;;;5093550;28;20502;-67
2023/04/05 03:30:04;;;;;;;0.60;0.50;;;;;;;;;;5094001;28;20445;-67
2023/04/05 03:32:33;;;;;;;0.60;0.50;;;;;;;;;;5093812;28;20442;-67
2023/04/05 03:35:00;;;;;;;0.60;0.60;;;;;;;;;;5093758;28;20441;-67
2023/04/05 03:37:27;;;;;;;0.60;0.50;;;;;;;;;;5094444;28;20459;-67
2023/04/05 03:39:54;;;;;;;0.70;0.67;;;;;;;;;;5094203;28;20451;-68
2023/04/05 03:42:21;;;;;;;0.60;0.40;;;;;;;;;;5094932;28;20512;-67
2023/04/05 03:44:49;;;;;;;4.13;0.80;;;;;;;;;;5094545;28;20444;-68
2023/04/05 03:47:16;;;;;;;0.60;0.40;;;;;;;;;;5094938;28;20460;-67
2023/04/05 03:49:45;;;;;;;0.60;0.40;;;;;;;;;;5093922;28;20495;-67
2023/04/05 03:52:12;;;;;;;0.60;0.43;;;;;;;;;;5094155;28;20443;-66
2023/04/05 03:54:39;;;;;;;0.60;0.40;;;;;;;;;;5092787;28;20442;-66
2023/04/05 03:57:07;;;;;;;0.77;0.77;;;;;;;;;;5092777;28;20956;-66
2023/04/05 03:59:34;;;;;;;0.60;0.40;;;;;;;;;;5093195;28;20445;-67
2023/04/05 04:02:01;;;;;;;0.70;0.63;;;;;;;;;;5093269;28;20455;-67
2023/04/05 04:04:28;;;;;;;0.70;0.60;;;;;;;;;;5092907;28;20944;-67
2023/04/05 04:06:57;;;;;;;0.50;0.40;;;;;;;;;;5092037;28;20446;-67
2023/04/05 04:09:24;;;;;;;0.60;0.40;;;;;;;;;;5093031;28;20481;-67
2023/04/05 04:11:51;;;;;;;0.60;0.50;;;;;;;;;;5092303;28;20450;-67
2023/04/05 04:14:18;;;;;;;1.73;0.87;;;;;;;;;;5092730;28;20454;-67
2023/04/05 04:16:45;;;;;;;1.37;1.27;;;;;;;;;;5091707;28;20452;-67
2023/04/05 04:19:12;;;;;;;0.60;0.50;;;;;;;;;;5092444;28;20449;-66
2023/04/05 04:21:43;;;;;;;0.60;0.40;;;;;;;;;;5092111;28;20824;-66
2023/04/05 04:24:15;;;;;;;0.60;0.47;;;;;;;;;;5092759;28;20476;-66
2023/04/05 04:26:42;;;;;;;0.60;0.40;;;;;;;;;;5091981;28;20444;-67
2023/04/05 04:29:11;;;;;;;0.60;0.40;;;;;;;;;;5092792;28;20486;-67
2023/04/05 04:31:38;;;;;;;0.60;0.40;;;;;;;;;;5092214;28;20464;-66
2023/04/05 04:34:06;;;;;;;0.70;0.63;;;;;;;;;;5092904;28;20463;-66
2023/04/05 04:36:38;;;;;;;0.60;0.47;;;;;;;;;;5091979;28;20939;-67
2023/04/05 04:39:05;;;;;;;1.00;0.80;;;;;;;;;;5092759;28;20453;-66
2023/04/05 04:41:34;;;;;;;1.03;0.93;;;;;;;;;;5092498;28;20447;-66
2023/04/05 04:44:02;;;;;;;1.17;1.10;;;;;;;;;;5092512;28;20440;-67
2023/04/05 04:46:33;;;;;;;1.00;0.60;;;;;;;;;;5092110;28;20451;-66
2023/04/05 04:49:04;;;;;;;0.60;0.40;;;;;;;;;;5091728;28;20506;-67
2023/04/05 04:51:31;;;;;;;0.60;0.40;;;;;;;;;;5092305;28;20443;-68
2023/04/05 04:53:58;;;;;;;0.60;0.50;;;;;;;;;;5091684;28;20445;-67
2023/04/05 04:56:25;;;;;;;0.60;0.40;;;;;;;;;;5091793;28;20921;-67
2023/04/05 04:58:56;;;;;;;0.60;0.40;;;;;;;;;;5091163;28;20455;-67
2023/04/05 05:01:23;;;;;;;0.67;0.63;;;;;;;;;;5092209;28;20443;-66
2023/04/05 05:03:51;;;;;;;0.70;0.70;;;;;;;;;;5091641;28;20456;-66
2023/04/05 05:06:18;;;;;;;1.07;0.97;;;;;;;;;;5091432;28;20456;-66
2023/04/05 05:08:46;;;;;;;0.60;0.50;;;;;;;;;;5090653;28;21075;-66
2023/04/05 05:11:13;;;;;;;1.63;1.53;;;;;;;;;;5091560;28;20481;-66
2023/04/05 05:13:40;;;;;;;0.60;0.50;;;;;;;;;;5091098;28;20447;-66
2023/04/05 05:16:10;;;;;;;0.63;0.57;;;;;;;;;;5091728;28;20449;-66
2023/04/05 05:18:39;;;;;;;0.70;0.60;;;;;;;;;;5090928;28;20444;-66
2023/04/05 05:21:06;;;;;;;0.70;0.70;;;;;;;;;;5091666;28;20498;-66
2023/04/05 05:23:33;;;;;;;0.70;0.67;;;;;;;;;;5091691;28;20453;-66
2023/04/05 05:26:00;;;;;;;0.70;0.70;;;;;;;;;;5091150;28;20816;-66
2023/04/05 05:28:28;;;;;;;0.60;0.50;;;;;;;;;;5091283;28;20450;-68
2023/04/05 05:30:55;;;;;;;0.70;0.70;;;;;;;;;;5091082;28;20453;-66
2023/04/05 05:33:24;;;;;;;0.60;0.60;;;;;;;;;;5091728;28;20444;-66
2023/04/05 05:35:51;;;;;;;0.60;0.57;;;;;;;;;;5090580;28;20444;-66
2023/04/05 05:38:18;;;;;;;0.60;0.40;;;;;;;;;;5091003;28;20537;-66
2023/04/05 05:40:45;;;;;;;0.90;0.90;;;;;;;;;;5090607;28;20450;-66
2023/04/05 05:43:12;;;;;;;0.60;0.40;;;;;;;;;;5091530;28;20453;-66
2023/04/05 05:45:39;;;;;;;0.60;0.60;;;;;;;;;;5090543;28;20442;-66
2023/04/05 05:48:07;;;;;;;0.77;0.73;;;;;;;;;;5091085;28;20555;-66
2023/04/05 05:50:38;;;;;;;0.90;0.90;;;;;;;;;;5091459;28;20590;-67
2023/04/05 05:53:05;;;;;;;0.50;0.40;;;;;;;;;;5091404;28;20794;-67
2023/04/05 05:55:32;;;;;;;0.60;0.50;;;;;;;;;;5091538;28;20771;-66
2023/04/05 05:57:59;;;;;;;0.80;0.80;;;;;;;;;;5090058;28;20477;-66
2023/04/05 06:00:26;;;;;;;0.60;0.40;;;;;;;;;;5091193;28;20462;-66
2023/04/05 06:02:53;;;;;;;0.97;0.97;;;;;;;;;;5090438;28;20943;-67
2023/04/05 06:05:20;;;;;;;0.80;0.80;;;;;;;;;;5091242;28;20450;-66
2023/04/05 06:07:49;;;;;;;0.60;0.40;;;;;;;;;;5089893;28;20458;-66
2023/04/05 06:10:17;;;;;;;0.70;0.70;;;;;;;;;;5091142;28;20486;-67
2023/04/05 06:12:44;;;;;;;0.60;0.50;;;;;;;;;;5090663;28;20522;-66
2023/04/05 06:15:11;;;;;;;0.60;0.40;;;;;;;;;;5090801;28;21086;-67
2023/04/05 06:17:41;;;;;;;0.70;0.60;;;;;;;;;;5090446;28;20794;-66
2023/04/05 06:20:10;;;;;;;0.60;0.50;;;;;;;;;;5090884;28;20479;-67
2023/04/05 06:22:39;;;;;;;0.87;0.87;;;;;;;;;;5090425;28;20680;-66
2023/04/05 06:25:08;;;;;;;1.17;0.80;;;;;;;;;;5095180;28;20452;-67
2023/04/05 06:27:35;;;;;;;0.60;0.40;;;;;;;;;;5094809;28;20454;-67
2023/04/05 06:30:03;;;;;;;0.60;0.50;;;;;;;;;;5095143;28;20491;-68
2023/04/05 06:32:30;;;;;;;0.70;0.60;;;;;;;;;;5094903;28;20440;-67
2023/04/05 06:34:57;;;;;;;2.80;1.37;;;;;;;;;;5094054;28;20455;-66
2023/04/05 06:37:24;;;;;;;0.60;0.40;;;;;;;;;;5094358;28;20512;-67
2023/04/05 06:39:51;;;;;;;0.60;0.53;;;;;;;;;;5094074;28;20954;-68
2023/04/05 06:42:20;;;;;;;0.80;0.80;;;;;;;;;;5094626;28;20451;-67
2023/04/05 06:44:47;;;;;;;0.60;0.40;;;;;;;;;;5093919;28;20445;-67
2023/04/05 06:47:14;;;;;;;1.53;1.43;;;;;;;;;;5094397;28;20444;-67
2023/04/05 06:49:41;;;;;;;0.70;0.70;;;;;;;;;;5094188;28;20586;-67
2023/04/05 06:52:09;;;;;;;1.70;1.60;;;;;;;;;;5094395;28;20769;-67
2023/04/05 06:54:38;;;;;;;1.37;1.03;;;;;;;;;;5094792;28;20448;-67
2023/04/05 06:57:05;;;;;;;0.60;0.40;;;;;;;;;;5093938;28;20498;-67
2023/04/05 06:59:34;;;;;;;0.60;0.47;;;;;;;;;;5094296;28;20974;-67
2023/04/05 07:02:01;;;;;;;3.73;1.47;;;;;;;;;;5094191;28;20776;-67
2023/04/05 07:04:32;;;;;;;0.80;0.57;;;;;;;;;;5094156;28;20454;-67
2023/04/05 07:07:01;;;;;;;0.70;0.70;;;;;;;;;;5092848;28;20462;-66
2023/04/05 07:09:31;;;;;;;1.10;1.00;;;;;;;;;;5093506;28;20475;-67
2023/04/05 07:11:58;;;;;;;0.60;0.40;;;;;;;;;;5093320;28;20515;-67
2023/04/05 07:14:25;;;;;;;6.43;3.80;;;;;;;;;;5093967;28;20502;-67
2023/04/05 07:16:54;;;;;;;0.60;0.53;;;;;;;;;;5093307;28;20989;-67
2023/04/05 07:19:21;;;;;;;0.80;0.77;;;;;;;;;;5093960;28;20444;-66
2023/04/05 07:21:48;;;;;;;0.70;0.63;;;;;;;;;;5093233;28;20824;-66
2023/04/05 07:24:15;;;;;;;0.60;0.50;;;;;;;;;;5094086;28;20456;-66
2023/04/05 07:26:42;;;;;;;0.60;0.40;;;;;;;;;;5093111;28;20448;-67
2023/04/05 07:29:10;;;;;;;0.60;0.47;;;;;;;;;;5093432;28;20456;-67
2023/04/05 07:31:38;;;;;;;1.10;0.83;;;;;;;;;;5093217;28;20456;-66
2023/04/05 07:34:07;;;;;;;1.50;1.40;;;;;;;;;;5093560;28;20456;-67
2023/04/05 07:36:34;;;;;;;1.43;1.13;;;;;;;;;;5092358;28;20453;-67
2023/04/05 07:39:01;;;;;;;0.70;0.70;;;;;;;;;;5093817;28;20945;-67
2023/04/05 07:41:31;;;;;;;0.63;0.53;;;;;;;;;;5093600;28;20455;-68
2023/04/05 07:43:58;;;;;;;3.03;1.50;;;;;;;;;;5093401;28;20451;-68
2023/04/05 07:46:26;;;;;;;1.07;1.07;;;;;;;;;;5093600;28;20449;-67
2023/04/05 07:48:53;;;;;;;0.73;0.70;;;;;;;;;;5093170;28;20451;-68
2023/04/05 07:51:21;;;;;;;2.00;1.63;;;;;;;;;;5093887;28;20495;-68
2023/04/05 07:53:48;;;;;;;1.17;1.07;;;;;;;;;;5093046;28;20456;-68
2023/04/05 07:56:16;;;;;;;2.10;1.20;;;;;;;;;;5093159;28;20451;-67
2023/04/05 07:58:43;;;;;;;1.77;1.23;;;;;;;;;;5092753;28;20454;-68
2023/04/05 08:01:11;;;;;;;0.73;0.73;;;;;;;;;;5093126;28;20463;-69
2023/04/05 08:03:38;;;;;;;0.60;0.40;;;;;;;;;;5092782;28;20456;-67
2023/04/05 08:06:12;;;;;;;7.43;1.33;;;;;;;;;;5093350;28;20478;-67
2023/04/05 08:08:40;;;;;;;0.90;0.60;;;;;;;;;;5092482;28;20489;-68
2023/04/05 08:11:08;;;;;;;1.77;1.00;;;;;;;;;;5093056;28;20480;-67
2023/04/05 08:13:35;;;;;;;0.60;0.57;;;;;;;;;;5093259;28;20940;-67
2023/04/05 08:16:02;;;;;;;2.10;1.70;;;;;;;;;;5093298;28;20512;-67
2023/04/05 08:18:30;;;;;;;1.10;0.80;;;;;;;;;;5092479;28;20880;-67
2023/04/05 08:20:57;;;;;;;2.17;2.00;;;;;;;;;;5092065;28;20487;-67
2023/04/05 08:23:24;;;;;;;1.30;0.87;;;;;;;;;;5092716;28;20869;-68
2023/04/05 08:25:53;;;;;;;1.17;1.07;;;;;;;;;;5092257;28;20444;-67
2023/04/05 08:28:20;;;;;;;0.80;0.80;;;;;;;;;;5092319;28;20452;-67
2023/04/05 08:30:47;;;;;;;1.13;0.93;;;;;;;;;;5091978;28;20491;-67
2023/04/05 08:33:15;;;;;;;1.60;1.50;;;;;;;;;;5092760;28;20444;-67
2023/04/05 08:35:43;;;;;;;1.00;1.00;;;;;;;;;;5092088;28;20447;-68
2023/04/05 08:38:11;;;;;;;2.60;1.03;;;;;;;;;;5092031;28;20457;-67
2023/04/05 08:40:41;;;;;;;0.80;0.77;;;;;;;;;;5091653;28;20468;-66
2023/04/05 08:43:11;;;;;;;2.00;1.90;;;;;;;;;;5092232;28;20942;-68
2023/04/05 08:45:44;;;;;;;1.40;1.30;;;;;;;;;;5091853;28;20437;-67
2023/04/05 08:48:11;;;;;;;1.10;1.00;;;;;;;;;;5091799;28;20454;-67
2023/04/05 08:50:38;;;;;;;0.83;0.77;;;;;;;;;;5091321;28;20489;-66
2023/04/05 08:53:05;;;;;;;0.60;0.40;;;;;;;;;;5092072;28;20448;-67
2023/04/05 08:55:32;;;;;;;0.80;0.80;;;;;;;;;;5092478;28;20444;-67
2023/04/05 08:58:03;;;;;;;4.20;1.23;;;;;;;;;;5090982;28;20445;-67
2023/04/05 09:00:33;;;;;;;1.00;0.90;;;;;;;;;;5091878;28;20531;-67
2023/04/05 09:03:01;;;;;;;0.73;0.73;;;;;;;;;;5091475;28;20518;-67
2023/04/05 09:05:29;;;;;;;1.60;0.93;;;;;;;;;;5091963;28;20441;-67
2023/04/05 09:07:58;;;;;;;1.00;0.70;;;;;;;;;;5090741;28;20806;-67
2023/04/05 09:10:26;;;;;;;0.70;0.70;;;;;;;;;;5078876;28;20807;-67
2023/04/05 09:12:53;;;;;;;0.73;0.73;;;;;;;;;;5090971;28;20455;-66
2023/04/05 09:15:23;;;;;;;0.90;0.90;;;;;;;;;;5091981;28;20444;-67
2023/04/05 09:17:51;;;;;;;0.70;0.53;;;;;;;;;;5090551;28;20941;-67
2023/04/05 09:20:19;;;;;;;0.60;0.50;;;;;;;;;;5091714;28;20480;-67
2023/04/05 09:22:46;;;;;;;0.70;0.60;;;;;;;;;;5090802;28;20539;-67
2023/04/05 09:25:13;;;;;;;1.10;0.63;;;;;;;;;;5091787;28;20463;-69
2023/04/05 09:27:55;;;;;;;0.67;0.63;;;;;;;;;;5090649;28;20472;-67
2023/04/05 09:30:23;;;;;;;2.23;1.53;;;;;;;;;;5091429;28;20967;-67
2023/04/05 09:32:53;;;;;;;1.17;0.90;;;;;;;;;;5090973;28;20445;-67
2023/04/05 09:35:21;;;;;;;0.60;0.50;;;;;;;;;;5091509;28;20429;-67
2023/04/05 09:37:53;;;;;;;1.00;0.90;;;;;;;;;;5090300;28;20575;-67
2023/04/05 09:40:20;;;;;;;1.00;1.00;;;;;;;;;;5091265;28;20494;-67
2023/04/05 09:42:47;;;;;;;4.63;1.07;;;;;;;;;;5090664;28;20943;-68
2023/04/05 09:45:15;;;;;;;0.50;0.50;;;;;;;;;;5091519;28;20445;-69
2023/04/05 09:47:44;;;;;;;2.93;1.83;;;;;;;;;;5090237;28;20451;-68
2023/04/05 09:50:20;;;;;;;0.70;0.60;;;;;;;;;;5090989;28;20480;-68
2023/04/05 09:52:48;;;;;;;1.17;1.00;;;;;;;;;;5090690;28;20472;-68
2023/04/05 09:55:15;;;;;;;0.60;0.60;;;;;;;;;;5091351;28;20453;-68
2023/04/05 09:57:42;;;;;;;0.93;0.83;;;;;;;;;;5089557;28;20451;-68
2023/04/05 10:00:18;;;;;;;1.50;1.40;;;;;;;;;;5090970;28;20453;-68
2023/04/05 10:02:46;;;;;;;0.83;0.70;;;;;;;;;;5090726;28;20444;-69
2023/04/05 10:05:14;;;;;;;0.97;0.80;;;;;;;;;;5091247;28;20472;-69
2023/04/05 10:07:43;;;;;;;0.60;0.50;;;;;;;;;;5089825;28;20457;-69
2023/04/05 10:10:11;;;;;;;1.17;1.07;;;;;;;;;;5090823;28;21021;-69
2023/04/05 10:12:40;;;;;;;1.40;0.87;;;;;;;;;;5090653;28;20452;-68
2023/04/05 10:15:08;;;;;;;1.53;1.23;;;;;;;;;;5090467;28;20464;-68
2023/04/05 10:17:38;;;;;;;1.17;1.00;;;;;;;;;;5086195;28;20451;-69
2023/04/05 10:20:10;;;;;;;1.47;1.37;;;;;;;;;;5090630;28;20846;-70
2023/04/05 10:22:41;;;;;;;0.90;0.87;;;;;;;;;;5090355;28;20856;-69
2023/04/05 10:25:13;;;;;;;1.17;1.10;;;;;;;;;;5090356;28;20457;-70
2023/04/05 10:27:47;;;;;;;1.00;0.90;;;;;;;;;;5089769;28;20440;-69
2023/04/05 10:30:16;;;;;;;1.20;0.97;;;;;;;;;;5079957;28;20528;-71
2023/04/05 10:32:53;;;;;;;0.60;0.50;;;;;;;;;;5089969;28;20445;-69
2023/04/05 10:35:25;;;;;;;1.50;1.07;;;;;;;;;;5086029;28;20490;-69
2023/04/05 10:38:01;;;;;;;0.90;0.60;;;;;;;;;;5092815;28;20462;-68
2023/04/05 10:40:32;;;;;;;1.00;0.60;;;;;;;;;;5096890;28;20447;-70
2023/04/05 10:43:00;;;;;;;1.23;1.13;;;;;;;;;;5090138;28;20444;-69
2023/04/05 10:45:27;;;;;;;0.90;0.77;;;;;;;;;;5090498;28;20505;-70
2023/04/05 10:47:55;;;;;;;1.43;1.33;;;;;;;;;;5089346;28;20445;-69
2023/04/05 10:50:23;;;;;;;0.70;0.70;;;;;;;;;;5090806;28;20527;-71
2023/04/05 10:52:52;;;;;;;1.17;1.07;;;;;;;;;;5089827;28;20507;-69
2023/04/05 10:55:19;;;;;;;1.33;0.70;;;;;;;;;;5090144;28;20453;-76
2023/04/05 10:57:49;;;;;;;2.33;1.40;;;;;;;;;;5089251;28;21020;-69
2023/04/05 11:00:16;;;;;;;1.00;0.90;;;;;;;;;;5090303;28;20448;-69
2023/04/05 11:02:44;;;;;;;1.27;1.13;;;;;;;;;;5089772;28;20452;-69
2023/04/05 11:05:26;;;;;;;1.10;1.00;;;;;;;;;;5090409;28;20455;-68
2023/04/05 11:07:55;;;;;;;0.70;0.70;;;;;;;;;;5088862;28;20445;-68
2023/04/05 11:10:23;;;;;;;0.50;0.40;;;;;;;;;;5095313;28;20490;-68
2023/04/05 11:13:10;;;;;;;1.03;0.97;;;;;;;;;;5102346;28;20466;-72
2023/04/05 11:15:38;;;;;;;2.30;1.17;;;;;;;;;;5095240;28;20452;-67
2023/04/05 11:18:06;;;;;;;1.03;0.93;;;;;;;;;;5094252;28;20943;-69
2023/04/05 11:20:50;;;;;;;1.33;1.23;;;;;;;;;;5094321;28;20506;-68
2023/04/05 11:23:18;;;;;;;0.70;0.70;;;;;;;;;;5093267;28;20531;-68
2023/04/05 11:25:50;;;;;;;1.10;1.00;;;;;;;;;;5092402;28;20441;-72
2023/04/05 11:28:30;;;;;;;0.70;0.70;;;;;;;;;;5093151;28;20964;-70
2023/04/05 11:30:58;;;;;;;1.03;1.03;;;;;;;;;;5088214;28;20475;-69
2023/04/05 11:33:38;;;;;;;0.70;0.63;;;;;;;;;;5093180;28;20449;-69
2023/04/05 11:36:05;;;;;;;1.93;1.10;;;;;;;;;;5093375;28;20445;-68
2023/04/05 11:38:32;;;;;;;0.93;0.93;;;;;;;;;;5093151;28;20498;-69
2023/04/05 11:41:07;;;;;;;0.73;0.67;;;;;;;;;;5092865;28;20544;-69
2023/04/05 11:43:37;;;;;;;0.63;0.50;;;;;;;;;;5093370;28;20871;-70
2023/04/05 11:46:04;;;;;;;1.40;1.30;;;;;;;;;;5079394;28;20440;-70
2023/04/05 11:48:31;;;;;;;0.87;0.77;;;;;;;;;;5093444;28;20457;-70
2023/04/05 11:50:58;;;;;;;1.43;0.80;;;;;;;;;;5092944;28;20716;-71
2023/04/05 11:53:25;;;;;;;0.80;0.73;;;;;;;;;;5092893;28;20475;-70
2023/04/05 11:55:54;;;;;;;0.60;0.53;;;;;;;;;;5092274;28;20445;-70
2023/04/05 11:58:22;;;;;;;0.60;0.57;;;;;;;;;;5092688;28;20906;-70
2023/04/05 12:00:59;;;;;;;1.60;1.50;;;;;;;;;;5092601;28;20472;-69
2023/04/05 12:03:27;;;;;;;1.13;1.07;;;;;;;;;;5092584;28;21116;-70
2023/04/05 12:05:55;;;;;;;0.97;0.87;;;;;;;;;;5092041;28;20506;-70
2023/04/05 12:08:22;;;;;;;1.23;1.13;;;;;;;;;;5092277;28;20951;-69
2023/04/05 12:10:56;;;;;;;0.77;0.73;;;;;;;;;;5092185;28;20823;-70
2023/04/05 12:13:27;;;;;;;3.00;1.63;;;;;;;;;;5092382;28;20452;-70
2023/04/05 12:15:55;;;;;;;0.87;0.70;;;;;;;;;;5091532;28;20892;-70
2023/04/05 12:18:25;;;;;;;1.20;0.87;;;;;;;;;;5092343;28;20444;-73
2023/04/05 12:20:52;;;;;;;1.70;1.07;;;;;;;;;;5091111;28;20550;-70
2023/04/05 12:23:20;;;;;;;1.00;0.90;;;;;;;;;;5091900;28;20457;-70
2023/04/05 12:25:47;;;;;;;0.60;0.60;;;;;;;;;;5091133;28;20514;-69
2023/04/05 12:28:15;;;;;;;1.47;1.33;;;;;;;;;;5092112;28;20444;-69
2023/04/05 12:30:49;;;;;;;1.37;1.27;;;;;;;;;;5090625;28;20883;-70
2023/04/05 12:33:16;;;;;;;0.80;0.73;;;;;;;;;;5092073;28;20448;-70
2023/04/05 12:35:44;;;;;;;0.97;0.80;;;;;;;;;;5091481;28;20803;-73
2023/04/05 12:38:16;;;;;;;0.80;0.80;;;;;;;;;;5091827;28;20464;-67
2023/04/05 12:40:44;;;;;;;1.53;1.43;;;;;;;;;;5091963;28;20460;-67
2023/04/05 12:43:18;;;;;;;2.97;1.47;;;;;;;;;;5091922;28;20943;-67
2023/04/05 12:45:45;;;;;;;1.03;1.00;;;;;;;;;;5091213;28;20518;-68
2023/04/05 12:48:13;;;;;;;2.90;1.63;;;;;;;;;;5092373;28;20453;-67
2023/04/05 12:50:42;;;;;;;0.80;0.70;;;;;;;;;;5091432;28;20448;-67
2023/04/05 12:53:19;;;;;;;1.40;1.30;;;;;;;;;;5091717;28;20443;-68
2023/04/05 12:55:49;;;;;;;1.10;0.90;;;;;;;;;;5091058;28;20497;-70
2023/04/05 12:58:17;;;;;;;0.87;0.87;;;;;;;;;;5091690;28;20920;-70
2023/04/05 13:00:45;;;;;;;0.97;0.93;;;;;;;;;;5091390;28;20928;-69
2023/04/05 13:03:19;;;;;;;1.17;1.07;;;;;;;;;;5091999;28;20474;-69
2023/04/05 13:05:47;;;;;;;1.83;1.23;;;;;;;;;;5091211;28;20470;-67
2023/04/05 13:08:17;;;;;;;1.10;0.93;;;;;;;;;;5091149;28;20452;-69
2023/04/05 13:10:44;;;;;;;1.17;1.17;;;;;;;;;;5091387;28;20448;-69
2023/04/05 13:13:12;;;;;;;0.60;0.60;;;;;;;;;;5091159;28;20452;-68
2023/04/05 13:15:39;;;;;;;2.23;1.40;;;;;;;;;;5088466;28;20950;-68
2023/04/05 13:18:06;;;;;;;0.60;0.60;;;;;;;;;;5084976;28;20471;-71
2023/04/05 13:20:33;;;;;;;1.43;0.80;;;;;;;;;;5087775;28;20480;-68
2023/04/05 13:23:00;;;;;;;1.03;0.93;;;;;;;;;;5085654;28;20459;-67
2023/04/05 13:25:29;;;;;;;5.13;1.50;;;;;;;;;;5086707;28;20449;-69
2023/04/05 13:27:56;;;;;;;1.97;0.93;;;;;;;;;;5078462;28;20741;-68
2023/04/05 13:30:23;;;;;;;0.70;0.70;;;;;;;;;;5091028;28;20939;-68
2023/04/05 13:32:50;;;;;;;1.00;0.90;;;;;;;;;;5084232;28;20482;-67
2023/04/05 13:35:17;;;;;;;1.43;1.27;;;;;;;;;;5074165;28;20451;-68
2023/04/05 13:37:45;;;;;;;1.80;0.97;;;;;;;;;;5083971;28;20449;-67
2023/04/05 13:40:12;;;;;;;0.60;0.57;;;;;;;;;;5084259;28;20441;-70
2023/04/05 13:42:41;;;;;;;0.80;0.80;;;;;;;;;;5088340;28;20453;-72
2023/04/05 13:45:08;;;;;;;1.20;1.10;;;;;;;;;;5083541;28;20452;-71
2023/04/05 13:47:35;;;;;;;0.70;0.60;;;;;;;;;;5091153;28;20451;-76
2023/04/05 13:50:03;;;;;;;0.97;0.87;;;;;;;;;;5085256;28;20465;-74
2023/04/05 13:52:30;;;;;;;0.93;0.90;;;;;;;;;;5089861;28;20499;-73
2023/04/05 13:54:57;;;;;;;1.60;1.00;;;;;;;;;;5089797;28;20455;-73
2023/04/05 13:57:24;;;;;;;2.43;1.40;;;;;;;;;;5089230;28;20801;-72
2023/04/05 13:59:53;;;;;;;0.97;0.87;;;;;;;;;;5090011;28;20452;-72
2023/04/05 14:02:24;;;;;;;2.50;1.43;;;;;;;;;;5090532;28;20951;-70
2023/04/05 14:04:51;;;;;;;0.70;0.70;;;;;;;;;;5086977;28;20539;-71
2023/04/05 14:07:18;;;;;;;0.80;0.67;;;;;;;;;;5090330;28;20455;-70
2023/04/05 14:09:45;;;;;;;0.77;0.77;;;;;;;;;;5089674;28;20444;-70
2023/04/05 14:12:13;;;;;;;1.07;0.97;;;;;;;;;;5090598;28;21024;-71
2023/04/05 14:14:40;;;;;;;0.97;0.80;;;;;;;;;;5090203;28;20539;-71
2023/04/05 14:17:11;;;;;;;1.40;1.20;;;;;;;;;;5089996;28;20491;-72
2023/04/05 14:19:38;;;;;;;0.60;0.50;;;;;;;;;;5089982;28;20464;-72
2023/04/05 14:22:05;;;;;;;1.00;0.70;;;;;;;;;;5089109;28;20547;-72
2023/04/05 14:24:32;;;;;;;1.93;1.83;;;;;;;;;;5090369;28;20476;-73
2023/04/05 14:27:00;;;;;;;0.93;0.73;;;;;;;;;;5089421;28;20476;-72
2023/04/05 14:29:27;;;;;;;1.33;1.23;;;;;;;;;;5090134;28;20452;-72
2023/04/05 14:31:55;;;;;;;0.70;0.70;;;;;;;;;;5089609;28;20570;-72
2023/04/05 14:34:23;;;;;;;1.20;0.90;;;;;;;;;;5090435;28;20527;-72
2023/04/05 14:36:51;;;;;;;1.03;0.67;;;;;;;;;;5082703;28;20466;-71
2023/04/05 14:39:18;;;;;;;0.77;0.70;;;;;;;;;;5087863;28;20543;-72
2023/04/05 14:41:48;;;;;;;0.80;0.67;;;;;;;;;;5089725;28;20526;-72
2023/04/05 14:44:16;;;;;;;1.33;1.23;;;;;;;;;;5090849;28;20527;-72
2023/04/05 14:46:43;;;;;;;1.10;1.00;;;;;;;;;;5093227;28;20531;-72
2023/04/05 14:49:10;;;;;;;0.70;0.60;;;;;;;;;;5093782;28;20521;-71
2023/04/05 14:51:39;;;;;;;0.70;0.60;;;;;;;;;;5094194;28;20488;-75